sensor_id;sensor_type;location;lat;lon;timestamp;temperature;humidity
4856;DHT22;2442;48.676;7.986;2022-12-07T00:00:45;4.00;99.90
4856;DHT22;2442;48.676;7.986;2022-12-07T00:03:12;4.00;99.90
4856;DHT22;2442;48.676;7.986;2022-12-07T00:05:40;4.00;99.90
4856;DHT22;2442;48.676;7.986;2022-12-07T00:08:07;4.00;99.90
4856;DHT22;2442;48.676;7.986;2022-12-07T00:10:34;3.90;99.90
4856;DHT22;2442;48.676;7.986;2022-12-07T00:13:00;3.90;99.90
4856;DHT22;2442;48.676;7.986;2022-12-07T00:15:27;3.90;99.90
4856;DHT22;2442;48.676;7.986;2022-12-07T00:17:54;3.90;99.90
4856;DHT22;2442;48.676;7.986;2022-12-07T00:20:21;4.20;99.90
4856;DHT22;2442;48.676;7.986;2022-12-07T00:22:49;4.10;99.90
4856;DHT22;2442;48.676;7.986;2022-12-07T00:25:16;3.90;99.90
4856;DHT22;2442;48.676;7.986;2022-12-07T00:27:43;3.90;99.90
4856;DHT22;2442;48.676;7.986;2022-12-07T00:30:10;3.70;99.90
4856;DHT22;2442;48.676;7.986;2022-12-07T00:32:37;3.60;99.90
4856;DHT22;2442;48.676;7.986;2022-12-07T00:35:04;3.50;99.90
4856;DHT22;2442;48.676;7.986;2022-12-07T00:37:31;3.50;99.90
4856;DHT22;2442;48.676;7.986;2022-12-07T00:39:59;3.40;99.90
4856;DHT22;2442;48.676;7.986;2022-12-07T00:42:26;3.30;99.90
4856;DHT22;2442;48.676;7.986;2022-12-07T00:44:53;3.30;99.90
4856;DHT22;2442;48.676;7.986;2022-12-07T00:47:20;3.20;99.90
4856;DHT22;2442;48.676;7.986;2022-12-07T00:49:46;3.20;99.90
4856;DHT22;2442;48.676;7.986;2022-12-07T00:52:13;3.10;99.90
4856;DHT22;2442;48.676;7.986;2022-12-07T00:54:40;3.10;99.90
4856;DHT22;2442;48.676;7.986;2022-12-07T00:57:08;3.10;99.90
4856;DHT22;2442;48.676;7.986;2022-12-07T00:59:35;3.20;99.90
4856;DHT22;2442;48.676;7.986;2022-12-07T01:02:02;3.20;99.90
4856;DHT22;2442;48.676;7.986;2022-12-07T01:04:29;3.20;99.90
4856;DHT22;2442;48.676;7.986;2022-12-07T01:06:56;3.40;99.90
4856;DHT22;2442;48.676;7.986;2022-12-07T01:09:22;3.50;99.90
4856;DHT22;2442;48.676;7.986;2022-12-07T01:11:49;3.50;99.90
4856;DHT22;2442;48.676;7.986;2022-12-07T01:14:17;3.30;99.90
4856;DHT22;2442;48.676;7.986;2022-12-07T01:16:44;3.30;99.90
4856;DHT22;2442;48.676;7.986;2022-12-07T01:19:11;3.20;99.90
4856;DHT22;2442;48.676;7.986;2022-12-07T01:21:38;3.30;99.90
4856;DHT22;2442;48.676;7.986;2022-12-07T01:24:07;3.30;99.90
4856;DHT22;2442;48.676;7.986;2022-12-07T01:26:35;3.30;99.90
4856;DHT22;2442;48.676;7.986;2022-12-07T01:29:02;3.30;99.90
4856;DHT22;2442;48.676;7.986;2022-12-07T01:31:31;3.20;99.90
4856;DHT22;2442;48.676;7.986;2022-12-07T01:33:59;3.30;99.90
4856;DHT22;2442;48.676;7.986;2022-12-07T01:36:28;3.20;99.90
4856;DHT22;2442;48.676;7.986;2022-12-07T01:38:56;3.30;99.90
4856;DHT22;2442;48.676;7.986;2022-12-07T01:41:25;3.50;99.90
4856;DHT22;2442;48.676;7.986;2022-12-07T01:44:15;3.70;99.90
4856;DHT22;2442;48.676;7.986;2022-12-07T01:46:45;3.40;99.90
4856;DHT22;2442;48.676;7.986;2022-12-07T01:49:20;3.40;99.90
4856;DHT22;2442;48.676;7.986;2022-12-07T01:51:49;3.50;99.90
4856;DHT22;2442;48.676;7.986;2022-12-07T01:54:17;3.40;99.90
4856;DHT22;2442;48.676;7.986;2022-12-07T01:56:50;3.30;99.90
4856;DHT22;2442;48.676;7.986;2022-12-07T01:59:18;3.20;99.90
4856;DHT22;2442;48.676;7.986;2022-12-07T02:01:47;3.20;99.90
4856;DHT22;2442;48.676;7.986;2022-12-07T02:04:15;3.20;99.90
4856;DHT22;2442;48.676;7.986;2022-12-07T02:06:43;3.20;99.90
4856;DHT22;2442;48.676;7.986;2022-12-07T02:09:11;3.20;99.90
4856;DHT22;2442;48.676;7.986;2022-12-07T02:11:38;3.20;99.90
4856;DHT22;2442;48.676;7.986;2022-12-07T02:14:06;3.30;99.90
4856;DHT22;2442;48.676;7.986;2022-12-07T02:16:38;3.30;99.90
4856;DHT22;2442;48.676;7.986;2022-12-07T02:19:39;3.60;99.90
4856;DHT22;2442;48.676;7.986;2022-12-07T02:22:24;3.40;99.90
4856;DHT22;2442;48.676;7.986;2022-12-07T02:25:01;3.40;99.90
4856;DHT22;2442;48.676;7.986;2022-12-07T02:27:38;3.30;99.90
4856;DHT22;2442;48.676;7.986;2022-12-07T02:30:09;3.20;99.90
4856;DHT22;2442;48.676;7.986;2022-12-07T02:32:42;3.20;99.90
4856;DHT22;2442;48.676;7.986;2022-12-07T02:35:13;3.10;99.90
4856;DHT22;2442;48.676;7.986;2022-12-07T02:37:48;3.10;99.90
4856;DHT22;2442;48.676;7.986;2022-12-07T02:40:19;3.10;99.90
4856;DHT22;2442;48.676;7.986;2022-12-07T02:42:53;3.00;99.90
4856;DHT22;2442;48.676;7.986;2022-12-07T02:45:25;3.10;99.90
4856;DHT22;2442;48.676;7.986;2022-12-07T02:47:56;3.00;99.90
4856;DHT22;2442;48.676;7.986;2022-12-07T02:50:25;3.00;99.90
4856;DHT22;2442;48.676;7.986;2022-12-07T02:52:52;3.00;99.90
4856;DHT22;2442;48.676;7.986;2022-12-07T02:55:23;2.90;99.90
4856;DHT22;2442;48.676;7.986;2022-12-07T02:58:06;2.80;99.90
4856;DHT22;2442;48.676;7.986;2022-12-07T03:00:45;2.80;99.90
4856;DHT22;2442;48.676;7.986;2022-12-07T03:03:15;2.80;99.90
4856;DHT22;2442;48.676;7.986;2022-12-07T03:06:03;2.80;99.90
4856;DHT22;2442;48.676;7.986;2022-12-07T03:08:44;2.70;99.90
4856;DHT22;2442;48.676;7.986;2022-12-07T03:11:16;2.80;99.90
4856;DHT22;2442;48.676;7.986;2022-12-07T03:13:50;3.10;99.90
4856;DHT22;2442;48.676;7.986;2022-12-07T03:16:21;2.70;99.90
4856;DHT22;2442;48.676;7.986;2022-12-07T03:18:53;2.50;99.90
4856;DHT22;2442;48.676;7.986;2022-12-07T03:21:24;2.40;99.90
4856;DHT22;2442;48.676;7.986;2022-12-07T03:23:56;2.30;99.90
4856;DHT22;2442;48.676;7.986;2022-12-07T03:26:28;2.20;99.90
4856;DHT22;2442;48.676;7.986;2022-12-07T03:29:02;2.20;99.90
4856;DHT22;2442;48.676;7.986;2022-12-07T03:31:38;2.30;99.90
4856;DHT22;2442;48.676;7.986;2022-12-07T03:34:10;2.30;99.90
4856;DHT22;2442;48.676;7.986;2022-12-07T03:36:40;2.40;99.90
4856;DHT22;2442;48.676;7.986;2022-12-07T03:39:16;2.40;99.90
4856;DHT22;2442;48.676;7.986;2022-12-07T03:41:43;2.50;99.90
4856;DHT22;2442;48.676;7.986;2022-12-07T03:44:11;2.50;99.90
4856;DHT22;2442;48.676;7.986;2022-12-07T03:46:43;2.50;99.90
4856;DHT22;2442;48.676;7.986;2022-12-07T03:49:16;2.50;99.90
4856;DHT22;2442;48.676;7.986;2022-12-07T03:51:53;2.80;99.90
4856;DHT22;2442;48.676;7.986;2022-12-07T03:54:24;2.60;99.90
4856;DHT22;2442;48.676;7.986;2022-12-07T03:56:54;2.70;99.90
4856;DHT22;2442;48.676;7.986;2022-12-07T03:59:22;2.70;99.90
4856;DHT22;2442;48.676;7.986;2022-12-07T04:01:54;2.70;99.90
4856;DHT22;2442;48.676;7.986;2022-12-07T04:04:21;2.60;99.90
4856;DHT22;2442;48.676;7.986;2022-12-07T04:06:48;2.60;99.90
4856;DHT22;2442;48.676;7.986;2022-12-07T04:09:16;2.60;99.90
4856;DHT22;2442;48.676;7.986;2022-12-07T04:11:44;2.60;99.90
4856;DHT22;2442;48.676;7.986;2022-12-07T04:14:10;2.70;99.90
4856;DHT22;2442;48.676;7.986;2022-12-07T04:16:47;2.80;99.90
4856;DHT22;2442;48.676;7.986;2022-12-07T04:19:16;3.00;99.90
4856;DHT22;2442;48.676;7.986;2022-12-07T04:21:45;2.80;99.90
4856;DHT22;2442;48.676;7.986;2022-12-07T04:24:13;2.70;99.90
4856;DHT22;2442;48.676;7.986;2022-12-07T04:26:42;2.70;99.90
4856;DHT22;2442;48.676;7.986;2022-12-07T04:29:10;2.60;99.90
4856;DHT22;2442;48.676;7.986;2022-12-07T04:31:38;2.70;99.90
4856;DHT22;2442;48.676;7.986;2022-12-07T04:34:06;2.60;99.90
4856;DHT22;2442;48.676;7.986;2022-12-07T04:36:35;2.60;99.90
4856;DHT22;2442;48.676;7.986;2022-12-07T04:39:06;2.60;99.90
4856;DHT22;2442;48.676;7.986;2022-12-07T04:41:34;2.50;99.90
4856;DHT22;2442;48.676;7.986;2022-12-07T04:44:02;2.40;99.90
4856;DHT22;2442;48.676;7.986;2022-12-07T04:46:33;2.40;99.90
4856;DHT22;2442;48.676;7.986;2022-12-07T04:48:59;2.30;99.90
4856;DHT22;2442;48.676;7.986;2022-12-07T04:51:28;2.20;99.90
4856;DHT22;2442;48.676;7.986;2022-12-07T04:53:57;2.20;99.90
4856;DHT22;2442;48.676;7.986;2022-12-07T04:56:24;2.20;99.90
4856;DHT22;2442;48.676;7.986;2022-12-07T04:58:53;2.30;99.90
4856;DHT22;2442;48.676;7.986;2022-12-07T05:01:21;2.40;99.90
4856;DHT22;2442;48.676;7.986;2022-12-07T05:03:48;2.50;99.90
4856;DHT22;2442;48.676;7.986;2022-12-07T05:06:15;2.40;99.90
4856;DHT22;2442;48.676;7.986;2022-12-07T05:08:42;2.30;99.90
4856;DHT22;2442;48.676;7.986;2022-12-07T05:11:11;2.20;99.90
4856;DHT22;2442;48.676;7.986;2022-12-07T05:13:59;2.20;99.90
4856;DHT22;2442;48.676;7.986;2022-12-07T05:16:27;2.20;99.90
4856;DHT22;2442;48.676;7.986;2022-12-07T05:18:54;2.20;99.90
4856;DHT22;2442;48.676;7.986;2022-12-07T05:21:21;2.20;99.90
4856;DHT22;2442;48.676;7.986;2022-12-07T05:23:48;2.10;99.90
4856;DHT22;2442;48.676;7.986;2022-12-07T05:26:16;2.10;99.90
4856;DHT22;2442;48.676;7.986;2022-12-07T05:28:43;2.10;99.90
4856;DHT22;2442;48.676;7.986;2022-12-07T05:31:10;2.00;99.90
4856;DHT22;2442;48.676;7.986;2022-12-07T05:33:37;2.00;99.90
4856;DHT22;2442;48.676;7.986;2022-12-07T05:36:04;2.10;99.90
4856;DHT22;2442;48.676;7.986;2022-12-07T05:38:33;2.10;99.90
4856;DHT22;2442;48.676;7.986;2022-12-07T05:41:01;2.10;99.90
4856;DHT22;2442;48.676;7.986;2022-12-07T05:43:29;2.30;99.90
4856;DHT22;2442;48.676;7.986;2022-12-07T05:45:57;2.40;99.90
4856;DHT22;2442;48.676;7.986;2022-12-07T05:48:23;2.40;99.90
4856;DHT22;2442;48.676;7.986;2022-12-07T05:50:51;2.50;99.90
4856;DHT22;2442;48.676;7.986;2022-12-07T05:53:18;2.20;99.90
4856;DHT22;2442;48.676;7.986;2022-12-07T05:55:45;2.10;99.90
4856;DHT22;2442;48.676;7.986;2022-12-07T05:58:12;2.00;99.90
4856;DHT22;2442;48.676;7.986;2022-12-07T06:01:09;1.90;99.90
4856;DHT22;2442;48.676;7.986;2022-12-07T06:03:36;1.90;99.90
4856;DHT22;2442;48.676;7.986;2022-12-07T06:06:03;2.00;99.90
4856;DHT22;2442;48.676;7.986;2022-12-07T06:08:29;2.00;99.90
4856;DHT22;2442;48.676;7.986;2022-12-07T06:10:56;1.90;99.90
4856;DHT22;2442;48.676;7.986;2022-12-07T06:13:37;1.90;99.90
4856;DHT22;2442;48.676;7.986;2022-12-07T06:16:04;1.90;99.90
4856;DHT22;2442;48.676;7.986;2022-12-07T06:18:33;2.10;99.90
4856;DHT22;2442;48.676;7.986;2022-12-07T06:21:00;2.00;99.90
4856;DHT22;2442;48.676;7.986;2022-12-07T06:23:26;2.10;99.90
4856;DHT22;2442;48.676;7.986;2022-12-07T06:25:53;2.20;99.90
4856;DHT22;2442;48.676;7.986;2022-12-07T06:28:20;2.10;99.90
4856;DHT22;2442;48.676;7.986;2022-12-07T06:30:47;2.00;99.90
4856;DHT22;2442;48.676;7.986;2022-12-07T06:33:14;2.00;99.90
4856;DHT22;2442;48.676;7.986;2022-12-07T06:35:42;2.00;99.90
4856;DHT22;2442;48.676;7.986;2022-12-07T06:38:09;2.00;99.90
4856;DHT22;2442;48.676;7.986;2022-12-07T06:40:35;2.00;99.90
4856;DHT22;2442;48.676;7.986;2022-12-07T06:43:02;2.00;99.90
4856;DHT22;2442;48.676;7.986;2022-12-07T06:45:29;2.10;99.90
4856;DHT22;2442;48.676;7.986;2022-12-07T06:47:56;2.10;99.90
4856;DHT22;2442;48.676;7.986;2022-12-07T06:50:22;2.10;99.90
4856;DHT22;2442;48.676;7.986;2022-12-07T06:52:52;2.20;99.90
4856;DHT22;2442;48.676;7.986;2022-12-07T06:55:19;2.30;99.90
4856;DHT22;2442;48.676;7.986;2022-12-07T06:57:45;2.30;99.90
4856;DHT22;2442;48.676;7.986;2022-12-07T07:00:13;2.30;99.90
4856;DHT22;2442;48.676;7.986;2022-12-07T07:02:40;2.30;99.90
4856;DHT22;2442;48.676;7.986;2022-12-07T07:05:07;2.40;99.90
4856;DHT22;2442;48.676;7.986;2022-12-07T07:07:34;2.40;99.90
4856;DHT22;2442;48.676;7.986;2022-12-07T07:10:03;2.30;99.90
4856;DHT22;2442;48.676;7.986;2022-12-07T07:12:30;2.30;99.90
4856;DHT22;2442;48.676;7.986;2022-12-07T07:14:57;2.30;99.90
4856;DHT22;2442;48.676;7.986;2022-12-07T07:17:24;2.30;99.90
4856;DHT22;2442;48.676;7.986;2022-12-07T07:19:51;2.40;99.90
4856;DHT22;2442;48.676;7.986;2022-12-07T07:22:17;2.40;99.90
4856;DHT22;2442;48.676;7.986;2022-12-07T07:24:44;2.40;99.90
4856;DHT22;2442;48.676;7.986;2022-12-07T07:27:13;2.50;99.90
4856;DHT22;2442;48.676;7.986;2022-12-07T07:29:39;2.40;99.90
4856;DHT22;2442;48.676;7.986;2022-12-07T07:32:06;2.30;99.90
4856;DHT22;2442;48.676;7.986;2022-12-07T07:34:34;2.40;99.90
4856;DHT22;2442;48.676;7.986;2022-12-07T07:37:01;2.40;99.90
4856;DHT22;2442;48.676;7.986;2022-12-07T07:39:27;2.50;99.90
4856;DHT22;2442;48.676;7.986;2022-12-07T07:41:54;2.50;99.90
4856;DHT22;2442;48.676;7.986;2022-12-07T07:44:22;2.50;99.90
4856;DHT22;2442;48.676;7.986;2022-12-07T07:46:49;2.50;99.90
4856;DHT22;2442;48.676;7.986;2022-12-07T07:49:16;2.60;99.90
4856;DHT22;2442;48.676;7.986;2022-12-07T07:51:43;2.70;99.90
4856;DHT22;2442;48.676;7.986;2022-12-07T07:54:10;2.70;99.90
4856;DHT22;2442;48.676;7.986;2022-12-07T07:56:36;2.70;99.90
4856;DHT22;2442;48.676;7.986;2022-12-07T07:59:03;2.60;99.90
4856;DHT22;2442;48.676;7.986;2022-12-07T08:01:31;2.60;99.90
4856;DHT22;2442;48.676;7.986;2022-12-07T08:03:58;2.70;99.90
4856;DHT22;2442;48.676;7.986;2022-12-07T08:06:25;2.60;99.90
4856;DHT22;2442;48.676;7.986;2022-12-07T08:08:52;2.60;99.90
4856;DHT22;2442;48.676;7.986;2022-12-07T08:11:19;2.60;99.90
4856;DHT22;2442;48.676;7.986;2022-12-07T08:13:46;2.70;99.90
4856;DHT22;2442;48.676;7.986;2022-12-07T08:16:13;2.70;99.90
4856;DHT22;2442;48.676;7.986;2022-12-07T08:18:42;2.80;99.90
4856;DHT22;2442;48.676;7.986;2022-12-07T08:21:11;2.80;99.90
4856;DHT22;2442;48.676;7.986;2022-12-07T08:23:38;2.90;99.90
4856;DHT22;2442;48.676;7.986;2022-12-07T08:26:06;2.80;99.90
4856;DHT22;2442;48.676;7.986;2022-12-07T08:28:33;2.80;99.90
4856;DHT22;2442;48.676;7.986;2022-12-07T08:31:01;2.80;99.90
4856;DHT22;2442;48.676;7.986;2022-12-07T08:33:28;2.80;99.90
4856;DHT22;2442;48.676;7.986;2022-12-07T08:36:01;2.80;99.90
4856;DHT22;2442;48.676;7.986;2022-12-07T08:38:28;2.80;99.90
4856;DHT22;2442;48.676;7.986;2022-12-07T08:40:55;2.90;99.90
4856;DHT22;2442;48.676;7.986;2022-12-07T08:43:22;3.00;99.90
4856;DHT22;2442;48.676;7.986;2022-12-07T08:45:53;3.00;99.90
4856;DHT22;2442;48.676;7.986;2022-12-07T08:48:22;3.00;99.90
4856;DHT22;2442;48.676;7.986;2022-12-07T08:50:50;3.10;99.90
4856;DHT22;2442;48.676;7.986;2022-12-07T08:53:18;3.00;99.90
4856;DHT22;2442;48.676;7.986;2022-12-07T08:55:47;3.10;99.90
4856;DHT22;2442;48.676;7.986;2022-12-07T08:58:14;3.10;99.90
4856;DHT22;2442;48.676;7.986;2022-12-07T09:00:41;3.20;99.90
4856;DHT22;2442;48.676;7.986;2022-12-07T09:03:08;3.20;99.90
4856;DHT22;2442;48.676;7.986;2022-12-07T09:05:35;3.20;99.90
4856;DHT22;2442;48.676;7.986;2022-12-07T09:08:02;3.30;99.90
4856;DHT22;2442;48.676;7.986;2022-12-07T09:10:31;3.30;99.90
4856;DHT22;2442;48.676;7.986;2022-12-07T09:12:58;3.40;99.90
4856;DHT22;2442;48.676;7.986;2022-12-07T09:15:26;3.40;99.90
4856;DHT22;2442;48.676;7.986;2022-12-07T09:17:53;3.50;99.90
4856;DHT22;2442;48.676;7.986;2022-12-07T09:20:20;3.40;99.90
4856;DHT22;2442;48.676;7.986;2022-12-07T09:22:47;3.50;99.90
4856;DHT22;2442;48.676;7.986;2022-12-07T09:25:14;3.50;99.90
4856;DHT22;2442;48.676;7.986;2022-12-07T09:27:42;3.60;99.90
4856;DHT22;2442;48.676;7.986;2022-12-07T09:30:09;3.40;99.90
4856;DHT22;2442;48.676;7.986;2022-12-07T09:32:36;3.40;99.90
4856;DHT22;2442;48.676;7.986;2022-12-07T09:35:03;3.40;99.90
4856;DHT22;2442;48.676;7.986;2022-12-07T09:37:30;3.50;99.90
4856;DHT22;2442;48.676;7.986;2022-12-07T09:40:00;3.50;99.90
4856;DHT22;2442;48.676;7.986;2022-12-07T09:42:29;3.60;99.90
4856;DHT22;2442;48.676;7.986;2022-12-07T09:45:00;3.60;99.90
4856;DHT22;2442;48.676;7.986;2022-12-07T09:47:28;3.70;99.90
4856;DHT22;2442;48.676;7.986;2022-12-07T09:50:03;3.70;99.90
4856;DHT22;2442;48.676;7.986;2022-12-07T09:52:31;3.70;99.90
4856;DHT22;2442;48.676;7.986;2022-12-07T09:54:58;3.70;99.90
4856;DHT22;2442;48.676;7.986;2022-12-07T09:57:28;3.80;99.90
4856;DHT22;2442;48.676;7.986;2022-12-07T09:59:56;3.80;99.90
4856;DHT22;2442;48.676;7.986;2022-12-07T10:02:35;3.80;99.90
4856;DHT22;2442;48.676;7.986;2022-12-07T10:05:05;3.80;99.90
4856;DHT22;2442;48.676;7.986;2022-12-07T10:07:32;3.90;99.90
4856;DHT22;2442;48.676;7.986;2022-12-07T10:09:59;3.90;99.90
4856;DHT22;2442;48.676;7.986;2022-12-07T10:12:26;4.00;99.90
4856;DHT22;2442;48.676;7.986;2022-12-07T10:14:54;4.00;99.90
4856;DHT22;2442;48.676;7.986;2022-12-07T10:17:40;3.90;99.90
4856;DHT22;2442;48.676;7.986;2022-12-07T10:20:24;3.90;99.90
4856;DHT22;2442;48.676;7.986;2022-12-07T10:23:00;4.10;99.90
4856;DHT22;2442;48.676;7.986;2022-12-07T10:25:29;4.10;99.90
4856;DHT22;2442;48.676;7.986;2022-12-07T10:28:00;4.30;99.90
4856;DHT22;2442;48.676;7.986;2022-12-07T10:30:28;4.10;99.90
4856;DHT22;2442;48.676;7.986;2022-12-07T10:32:57;4.10;99.90
4856;DHT22;2442;48.676;7.986;2022-12-07T10:35:26;4.10;99.90
4856;DHT22;2442;48.676;7.986;2022-12-07T10:37:55;4.10;99.90
4856;DHT22;2442;48.676;7.986;2022-12-07T10:40:30;4.20;99.90
4856;DHT22;2442;48.676;7.986;2022-12-07T10:43:05;4.20;99.90
4856;DHT22;2442;48.676;7.986;2022-12-07T10:45:35;4.20;99.90
4856;DHT22;2442;48.676;7.986;2022-12-07T10:48:13;4.10;99.90
4856;DHT22;2442;48.676;7.986;2022-12-07T10:50:51;4.10;99.90
4856;DHT22;2442;48.676;7.986;2022-12-07T10:53:34;4.10;99.90
4856;DHT22;2442;48.676;7.986;2022-12-07T10:56:33;4.00;99.90
4856;DHT22;2442;48.676;7.986;2022-12-07T11:02:20;4.10;99.90
4856;DHT22;2442;48.676;7.986;2022-12-07T11:05:02;4.20;99.90
4856;DHT22;2442;48.676;7.986;2022-12-07T11:07:43;4.30;99.90
4856;DHT22;2442;48.676;7.986;2022-12-07T11:10:17;4.30;99.90
4856;DHT22;2442;48.676;7.986;2022-12-07T11:12:56;4.30;99.90
4856;DHT22;2442;48.676;7.986;2022-12-07T11:15:28;4.40;99.90
4856;DHT22;2442;48.676;7.986;2022-12-07T11:18:03;4.40;99.90
4856;DHT22;2442;48.676;7.986;2022-12-07T11:20:41;4.40;99.90
4856;DHT22;2442;48.676;7.986;2022-12-07T11:23:18;4.50;99.90
4856;DHT22;2442;48.676;7.986;2022-12-07T11:25:54;4.50;99.90
4856;DHT22;2442;48.676;7.986;2022-12-07T11:28:34;4.60;99.90
4856;DHT22;2442;48.676;7.986;2022-12-07T11:31:12;4.70;99.90
4856;DHT22;2442;48.676;7.986;2022-12-07T11:33:44;4.70;99.90
4856;DHT22;2442;48.676;7.986;2022-12-07T11:36:31;4.60;99.90
4856;DHT22;2442;48.676;7.986;2022-12-07T11:39:02;4.60;99.90
4856;DHT22;2442;48.676;7.986;2022-12-07T11:41:32;4.70;99.90
4856;DHT22;2442;48.676;7.986;2022-12-07T11:44:08;4.70;99.90
4856;DHT22;2442;48.676;7.986;2022-12-07T11:46:49;4.70;99.90
4856;DHT22;2442;48.676;7.986;2022-12-07T11:49:23;4.70;99.90
4856;DHT22;2442;48.676;7.986;2022-12-07T11:51:53;4.60;99.90
4856;DHT22;2442;48.676;7.986;2022-12-07T11:54:26;4.60;99.90
4856;DHT22;2442;48.676;7.986;2022-12-07T11:56:55;4.60;99.90
4856;DHT22;2442;48.676;7.986;2022-12-07T11:59:27;4.60;99.90
4856;DHT22;2442;48.676;7.986;2022-12-07T12:01:59;4.60;99.90
4856;DHT22;2442;48.676;7.986;2022-12-07T12:04:35;4.50;99.90
4856;DHT22;2442;48.676;7.986;2022-12-07T12:07:10;4.50;99.90
4856;DHT22;2442;48.676;7.986;2022-12-07T12:09:46;4.40;99.90
4856;DHT22;2442;48.676;7.986;2022-12-07T12:12:36;4.40;99.90
4856;DHT22;2442;48.676;7.986;2022-12-07T12:15:21;4.40;99.90
4856;DHT22;2442;48.676;7.986;2022-12-07T12:18:18;4.40;99.90
4856;DHT22;2442;48.676;7.986;2022-12-07T12:20:51;4.40;99.90
4856;DHT22;2442;48.676;7.986;2022-12-07T12:23:25;4.50;99.90
4856;DHT22;2442;48.676;7.986;2022-12-07T12:25:56;4.50;99.90
4856;DHT22;2442;48.676;7.986;2022-12-07T12:28:27;4.50;99.90
4856;DHT22;2442;48.676;7.986;2022-12-07T12:31:07;4.60;99.90
4856;DHT22;2442;48.676;7.986;2022-12-07T12:33:35;4.50;99.90
4856;DHT22;2442;48.676;7.986;2022-12-07T12:36:23;4.50;99.90
4856;DHT22;2442;48.676;7.986;2022-12-07T12:39:08;4.50;99.90
4856;DHT22;2442;48.676;7.986;2022-12-07T12:41:57;4.50;99.90
4856;DHT22;2442;48.676;7.986;2022-12-07T12:44:40;4.60;99.90
4856;DHT22;2442;48.676;7.986;2022-12-07T12:47:40;4.60;99.90
4856;DHT22;2442;48.676;7.986;2022-12-07T12:50:18;4.60;99.90
4856;DHT22;2442;48.676;7.986;2022-12-07T12:52:52;4.60;99.90
4856;DHT22;2442;48.676;7.986;2022-12-07T13:01:46;4.70;99.90
4856;DHT22;2442;48.676;7.986;2022-12-07T13:04:24;4.90;99.90
4856;DHT22;2442;48.676;7.986;2022-12-07T13:06:52;4.80;99.90
4856;DHT22;2442;48.676;7.986;2022-12-07T13:09:21;4.70;99.90
4856;DHT22;2442;48.676;7.986;2022-12-07T13:11:54;4.70;99.90
4856;DHT22;2442;48.676;7.986;2022-12-07T13:14:41;4.80;99.90
4856;DHT22;2442;48.676;7.986;2022-12-07T13:17:09;4.90;99.90
4856;DHT22;2442;48.676;7.986;2022-12-07T13:19:57;4.80;99.90
4856;DHT22;2442;48.676;7.986;2022-12-07T13:22:49;4.80;99.90
4856;DHT22;2442;48.676;7.986;2022-12-07T13:25:33;4.70;99.90
4856;DHT22;2442;48.676;7.986;2022-12-07T13:28:10;4.60;99.90
4856;DHT22;2442;48.676;7.986;2022-12-07T13:30:46;4.60;99.90
4856;DHT22;2442;48.676;7.986;2022-12-07T13:33:15;4.50;99.90
4856;DHT22;2442;48.676;7.986;2022-12-07T13:35:44;4.50;99.90
4856;DHT22;2442;48.676;7.986;2022-12-07T13:38:24;4.50;99.90
4856;DHT22;2442;48.676;7.986;2022-12-07T13:41:20;4.50;99.90
4856;DHT22;2442;48.676;7.986;2022-12-07T13:43:50;4.60;99.90
4856;DHT22;2442;48.676;7.986;2022-12-07T13:46:21;4.50;99.90
4856;DHT22;2442;48.676;7.986;2022-12-07T13:48:50;4.50;99.90
4856;DHT22;2442;48.676;7.986;2022-12-07T13:51:20;4.40;99.90
4856;DHT22;2442;48.676;7.986;2022-12-07T13:53:48;4.40;99.90
4856;DHT22;2442;48.676;7.986;2022-12-07T13:56:16;4.40;99.90
4856;DHT22;2442;48.676;7.986;2022-12-07T13:58:43;4.40;99.90
4856;DHT22;2442;48.676;7.986;2022-12-07T14:01:10;4.40;99.90
4856;DHT22;2442;48.676;7.986;2022-12-07T14:03:40;4.30;99.90
4856;DHT22;2442;48.676;7.986;2022-12-07T14:06:15;4.30;99.90
4856;DHT22;2442;48.676;7.986;2022-12-07T14:08:42;4.30;99.90
4856;DHT22;2442;48.676;7.986;2022-12-07T14:11:14;4.30;99.90
4856;DHT22;2442;48.676;7.986;2022-12-07T14:13:50;4.30;99.90
4856;DHT22;2442;48.676;7.986;2022-12-07T14:16:23;4.30;99.90
4856;DHT22;2442;48.676;7.986;2022-12-07T14:18:52;4.30;99.90
4856;DHT22;2442;48.676;7.986;2022-12-07T14:21:21;4.30;99.90
4856;DHT22;2442;48.676;7.986;2022-12-07T14:24:08;4.30;99.90
4856;DHT22;2442;48.676;7.986;2022-12-07T14:26:35;4.30;99.90
4856;DHT22;2442;48.676;7.986;2022-12-07T14:29:30;4.30;99.90
4856;DHT22;2442;48.676;7.986;2022-12-07T14:32:17;4.30;99.90
4856;DHT22;2442;48.676;7.986;2022-12-07T14:34:55;4.30;99.90
4856;DHT22;2442;48.676;7.986;2022-12-07T14:37:22;4.30;99.90
4856;DHT22;2442;48.676;7.986;2022-12-07T14:39:49;4.30;99.90
4856;DHT22;2442;48.676;7.986;2022-12-07T14:42:16;4.30;99.90
4856;DHT22;2442;48.676;7.986;2022-12-07T14:44:43;4.30;99.90
4856;DHT22;2442;48.676;7.986;2022-12-07T14:47:10;4.30;99.90
4856;DHT22;2442;48.676;7.986;2022-12-07T14:49:37;4.30;99.90
4856;DHT22;2442;48.676;7.986;2022-12-07T14:52:11;4.30;99.90
4856;DHT22;2442;48.676;7.986;2022-12-07T14:54:41;4.30;99.90
4856;DHT22;2442;48.676;7.986;2022-12-07T14:57:08;4.30;99.90
4856;DHT22;2442;48.676;7.986;2022-12-07T14:59:36;4.30;99.90
4856;DHT22;2442;48.676;7.986;2022-12-07T15:02:03;4.20;99.90
4856;DHT22;2442;48.676;7.986;2022-12-07T15:04:30;4.20;99.90
4856;DHT22;2442;48.676;7.986;2022-12-07T15:06:58;4.20;99.90
4856;DHT22;2442;48.676;7.986;2022-12-07T15:09:27;4.20;99.90
4856;DHT22;2442;48.676;7.986;2022-12-07T15:11:54;4.10;99.90
4856;DHT22;2442;48.676;7.986;2022-12-07T15:14:21;4.10;99.90
4856;DHT22;2442;48.676;7.986;2022-12-07T15:16:47;4.10;99.90
4856;DHT22;2442;48.676;7.986;2022-12-07T15:19:16;4.10;99.90
4856;DHT22;2442;48.676;7.986;2022-12-07T15:21:44;4.10;99.90
4856;DHT22;2442;48.676;7.986;2022-12-07T15:24:11;4.10;99.90
4856;DHT22;2442;48.676;7.986;2022-12-07T15:26:40;4.10;99.90
4856;DHT22;2442;48.676;7.986;2022-12-07T15:29:07;4.10;99.90
4856;DHT22;2442;48.676;7.986;2022-12-07T15:31:35;4.10;99.90
4856;DHT22;2442;48.676;7.986;2022-12-07T15:34:02;4.00;99.90
4856;DHT22;2442;48.676;7.986;2022-12-07T15:36:31;4.10;99.90
4856;DHT22;2442;48.676;7.986;2022-12-07T15:38:58;4.00;99.90
4856;DHT22;2442;48.676;7.986;2022-12-07T15:41:26;4.00;99.90
4856;DHT22;2442;48.676;7.986;2022-12-07T15:43:54;4.10;99.90
4856;DHT22;2442;48.676;7.986;2022-12-07T15:46:40;4.00;99.90
4856;DHT22;2442;48.676;7.986;2022-12-07T15:49:10;4.00;99.90
4856;DHT22;2442;48.676;7.986;2022-12-07T15:51:38;4.00;99.90
4856;DHT22;2442;48.676;7.986;2022-12-07T15:54:05;4.10;99.90
4856;DHT22;2442;48.676;7.986;2022-12-07T15:56:32;4.10;99.90
4856;DHT22;2442;48.676;7.986;2022-12-07T15:59:00;4.00;99.90
4856;DHT22;2442;48.676;7.986;2022-12-07T16:01:26;4.10;99.90
4856;DHT22;2442;48.676;7.986;2022-12-07T16:03:53;4.10;99.90
4856;DHT22;2442;48.676;7.986;2022-12-07T16:06:20;4.00;99.90
4856;DHT22;2442;48.676;7.986;2022-12-07T16:08:47;4.00;99.90
4856;DHT22;2442;48.676;7.986;2022-12-07T16:11:14;4.10;99.90
4856;DHT22;2442;48.676;7.986;2022-12-07T16:13:41;4.00;99.90
4856;DHT22;2442;48.676;7.986;2022-12-07T16:16:13;4.00;99.90
4856;DHT22;2442;48.676;7.986;2022-12-07T16:18:41;4.00;99.90
4856;DHT22;2442;48.676;7.986;2022-12-07T16:21:09;4.00;99.90
4856;DHT22;2442;48.676;7.986;2022-12-07T16:23:35;4.00;99.90
4856;DHT22;2442;48.676;7.986;2022-12-07T16:26:07;4.20;99.90
4856;DHT22;2442;48.676;7.986;2022-12-07T16:28:34;4.00;99.90
4856;DHT22;2442;48.676;7.986;2022-12-07T16:31:03;4.00;99.90
4856;DHT22;2442;48.676;7.986;2022-12-07T16:33:33;4.00;99.90
4856;DHT22;2442;48.676;7.986;2022-12-07T16:36:00;4.10;99.90
4856;DHT22;2442;48.676;7.986;2022-12-07T16:38:27;4.00;99.90
4856;DHT22;2442;48.676;7.986;2022-12-07T16:40:54;4.00;99.90
4856;DHT22;2442;48.676;7.986;2022-12-07T16:43:21;4.00;99.90
4856;DHT22;2442;48.676;7.986;2022-12-07T16:45:49;4.20;99.90
4856;DHT22;2442;48.676;7.986;2022-12-07T16:48:17;4.00;99.90